Terminal Aerodrome Forecast
Issued by NWS

Home | Current Version | Previous Version | Text Only | Print | Product List | Glossary On
Versions: 1 2 3 4 5 6 7 8 9 10 11 12 13 14 15 16 17 18 19 20 21 22 23 24 25 26 27 28 29 30 31 32 33
570
FTUS42 TJSJ 271215 AAA
TAFKPK
TAF AMD
TKPK 271215Z 2712/2812 09011KT P6SM VCSH SCT016
      TEMPO 2712/2715 -SHRA BKN016
     FM271500 08012KT P6SM SCT020
     FM272300 07008KT P6SM FEW018=

USA.gov is the U.S. government's official web portal to all federal, state and local government web resources and services.